Time;durP1;ratioP1;P1;durP2;ratioP2;P2;SDS_P1;SDS_P2;PMS_P1;PMS_P2;Temp;Humidity;BMP_temperature;BMP_pressure;BME280_temperature;BME280_humidity;BME280_pressure;Samples;Min_cycle;Max_cycle;Signal;HPM_P1;HPM_P2
2022/12/03 00:00:25;;;;;;;;;;;;;;;4.27;100.00;101743.53;5059453;28;19927;-57
2022/12/03 00:02:50;;;;;;;;;;;;;;;4.26;100.00;101741.00;5062191;28;19936;-59
2022/12/03 00:05:15;;;;;;;;;;;;;;;4.28;100.00;101736.47;5059479;28;19924;-57
2022/12/03 00:07:41;;;;;;;;;;;;;;;4.24;100.00;101729.81;5059750;28;19969;-60
2022/12/03 00:10:06;;;;;;;;;;;;;;;4.23;100.00;101741.25;5063475;28;19935;-59
2022/12/03 00:12:31;;;;;;;;;;;;;;;4.21;100.00;101735.28;5059855;28;20401;-59
2022/12/03 00:14:56;;;;;;;;;;;;;;;4.25;100.00;101736.72;5062720;28;19925;-59
2022/12/03 00:17:22;;;;;;;;;;;;;;;4.24;100.00;101737.69;5058162;28;19929;-58
2022/12/03 00:19:47;;;;;;;;;;;;;;;4.20;100.00;101733.63;5060854;28;19921;-62
2022/12/03 00:22:12;;;;;;;;;;;;;;;4.20;100.00;101725.75;5039905;28;19928;-56
2022/12/03 00:24:37;;;;;;;;;;;;;;;4.21;100.00;101728.25;5057835;28;19921;-59
2022/12/03 00:27:03;;;;;;;;;;;;;;;4.17;100.00;101733.88;5060131;28;19925;-59
2022/12/03 00:29:28;;;;;;;;;;;;;;;4.21;100.00;101733.50;5056367;28;20038;-60
2022/12/03 00:31:53;;;;;;;;;;;;;;;4.21;100.00;101732.66;5057533;28;20045;-59
2022/12/03 00:34:18;;;;;;;;;;;;;;;4.15;100.00;101723.47;5058291;28;19932;-59
2022/12/03 00:36:44;;;;;;;;;;;;;;;4.11;100.00;101730.75;5064340;28;20030;-60
2022/12/03 00:39:09;;;;;;;;;;;;;;;4.12;100.00;101721.09;5058016;28;19921;-58
2022/12/03 00:41:34;;;;;;;;;;;;;;;4.11;100.00;101722.88;5058789;28;19983;-58
2022/12/03 00:43:59;;;;;;;;;;;;;;;4.11;100.00;101722.88;5056353;28;19959;-56
2022/12/03 00:46:25;;;;;;;;;;;;;;;4.13;100.00;101714.88;5063295;28;19920;-58
2022/12/03 00:48:50;;;;;;;;;;;;;;;4.10;100.00;101722.97;5055852;28;19968;-58
2022/12/03 00:51:15;;;;;;;;;;;;;;;4.13;100.00;101713.09;5061090;28;20526;-59
2022/12/03 00:53:41;;;;;;;;;;;;;;;4.17;100.00;101723.34;5056951;28;19925;-59
2022/12/03 00:56:06;;;;;;;;;;;;;;;4.14;100.00;101719.19;5058721;28;19975;-59
2022/12/03 00:58:31;;;;;;;;;;;;;;;4.11;100.00;101720.25;5052346;28;19967;-59
2022/12/03 01:00:56;;;;;;;;;;;;;;;4.19;100.00;101724.91;5058273;28;19950;-59
2022/12/03 01:03:22;;;;;;;;;;;;;;;4.18;100.00;101723.22;5049939;28;19921;-56
2022/12/03 01:05:47;;;;;;;;;;;;;;;4.15;100.00;101713.78;5054905;28;19921;-59
2022/12/03 01:08:13;;;;;;;;;;;;;;;4.13;100.00;101720.13;5061087;28;19921;-58
2022/12/03 01:10:38;;;;;;;;;;;;;;;4.11;100.00;101722.88;5054594;28;20015;-59
2022/12/03 01:13:03;;;;;;;;;;;;;;;4.07;100.00;101721.44;5053900;28;19936;-59
2022/12/03 01:15:28;;;;;;;;;;;;;;;4.05;100.00;101714.63;5059815;28;20378;-59
2022/12/03 01:17:54;;;;;;;;;;;;;;;4.05;100.00;101715.50;5055617;28;19968;-59
2022/12/03 01:20:19;;;;;;;;;;;;;;;4.11;100.00;101719.44;5055639;28;20026;-58
2022/12/03 01:22:44;;;;;;;;;;;;;;;4.12;100.00;101710.59;5062560;28;19928;-57
2022/12/03 01:25:09;;;;;;;;;;;;;;;4.04;100.00;101705.09;5052250;28;19927;-57
2022/12/03 01:27:35;;;;;;;;;;;;;;;4.07;100.00;101695.19;5063171;28;19928;-59
2022/12/03 01:30:00;;;;;;;;;;;;;;;4.06;100.00;101700.56;5051964;28;19925;-59
2022/12/03 01:32:25;;;;;;;;;;;;;;;4.08;100.00;101689.00;5062316;28;20271;-56
2022/12/03 01:34:52;;;;;;;;;;;;;;;4.05;100.00;101694.50;5056873;28;20344;-57
2022/12/03 01:37:18;;;;;;;;;;;;;;;4.09;100.00;101684.59;5052295;28;19925;-57
2022/12/03 01:39:43;;;;;;;;;;;;;;;4.14;100.00;101691.13;5055888;28;19920;-59
2022/12/03 01:42:13;;;;;;;;;;;;;;;4.04;100.00;101695.44;5050734;28;19928;-59
2022/12/03 01:44:39;;;;;;;;;;;;;;;4.07;100.00;101689.94;5056982;28;20412;-58
2022/12/03 01:47:06;;;;;;;;;;;;;;;4.07;100.00;101691.72;5052838;28;19924;-57
2022/12/03 01:49:37;;;;;;;;;;;;;;;4.06;100.00;101677.78;5059167;28;19920;-58
2022/12/03 01:52:02;;;;;;;;;;;;;;;4.13;100.00;101678.13;5049888;28;20007;-53
2022/12/03 01:54:32;;;;;;;;;;;;;;;4.08;100.00;101683.75;5052175;28;20008;-59
2022/12/03 01:56:57;;;;;;;;;;;;;;;4.04;100.00;101674.44;5057249;28;19921;-59
2022/12/03 01:59:29;;;;;;;;;;;;;;;4.05;100.00;101680.50;5056473;28;20015;-58
2022/12/03 02:01:54;;;;;;;;;;;;;;;4.06;100.00;101679.56;5054410;28;19924;-57
2022/12/03 02:04:21;;;;;;;;;;;;;;;4.02;100.00;101672.88;5051602;28;19931;-57
2022/12/03 02:06:46;;;;;;;;;;;;;;;4.03;100.00;101669.31;5056210;28;19921;-59
2022/12/03 02:09:12;;;;;;;;;;;;;;;3.99;100.00;101679.19;5053106;28;19925;-60
2022/12/03 02:11:45;;;;;;;;;;;;;;;3.97;100.00;101686.34;5061343;28;20289;-60
2022/12/03 02:14:12;;;;;;;;;;;;;;;4.02;100.00;101678.97;5057789;28;20430;-59
2022/12/03 02:16:38;;;;;;;;;;;;;;;3.99;100.00;101689.69;5036805;28;19928;-59
2022/12/03 02:19:07;;;;;;;;;;;;;;;3.96;100.00;101694.34;5056823;28;19924;-60
2022/12/03 02:21:50;;;;;;;;;;;;;;;3.94;100.00;101691.84;5061259;28;19965;-60
2022/12/03 02:24:27;;;;;;;;;;;;;;;3.94;100.00;101683.97;5057591;28;20016;-59
2022/12/03 02:26:53;;;;;;;;;;;;;;;3.94;100.00;101681.34;5055271;28;19967;-60
2022/12/03 02:29:18;;;;;;;;;;;;;;;3.91;100.00;101669.28;5054094;28;19968;-59
2022/12/03 02:31:43;;;;;;;;;;;;;;;3.89;100.00;101671.19;5061643;28;20335;-56
2022/12/03 02:34:09;;;;;;;;;;;;;;;3.93;100.00;101670.03;5062054;28;19920;-59
2022/12/03 02:36:35;;;;;;;;;;;;;;;3.94;100.00;101670.84;5062579;28;19981;-59
2022/12/03 02:39:01;;;;;;;;;;;;;;;3.92;100.00;101673.59;5053111;28;19943;-60
2022/12/03 02:44:11;;;;;;;;;;;;;;;3.98;100.00;101664.41;5052582;28;19974;-58
2022/12/03 02:46:36;;;;;;;;;;;;;;;3.94;100.00;101666.44;5053366;28;19924;-60
2022/12/03 02:49:02;;;;;;;;;;;;;;;3.96;100.00;101666.31;5064024;28;19916;-59
2022/12/03 02:51:27;;;;;;;;;;;;;;;3.94;100.00;101668.22;5053284;28;19921;-59
2022/12/03 02:53:53;;;;;;;;;;;;;;;3.93;100.00;101661.31;5055637;28;19920;-56
2022/12/03 02:56:21;;;;;;;;;;;;;;;3.91;100.00;101660.59;5036889;28;19921;-58
2022/12/03 02:58:48;;;;;;;;;;;;;;;3.96;100.00;101663.69;5056828;28;19925;-58
2022/12/03 03:01:16;;;;;;;;;;;;;;;3.95;100.00;101667.28;5063050;28;19936;-57
2022/12/03 03:03:43;;;;;;;;;;;;;;;3.94;100.00;101662.97;5056021;28;19998;-57
2022/12/03 03:06:08;;;;;;;;;;;;;;;3.95;100.00;101659.41;5059125;28;19939;-54
2022/12/03 03:08:35;;;;;;;;;;;;;;;3.94;100.00;101655.09;5060306;28;19925;-58
2022/12/03 03:11:01;;;;;;;;;;;;;;;3.94;100.00;101662.97;5056874;28;19972;-58
2022/12/03 03:13:28;;;;;;;;;;;;;;;3.94;100.00;101655.09;5056586;28;20009;-58
2022/12/03 03:15:54;;;;;;;;;;;;;;;3.95;100.00;101662.03;5062039;28;19921;-58
2022/12/03 03:18:19;;;;;;;;;;;;;;;3.94;100.00;101652.47;5047784;28;19927;-58
2022/12/03 03:20:45;;;;;;;;;;;;;;;3.84;100.00;101651.53;5053946;28;20294;-56
2022/12/03 03:23:10;;;;;;;;;;;;;;;3.67;100.00;101642.34;5053459;28;19924;-58
2022/12/03 03:25:36;;;;;;;;;;;;;;;3.60;100.00;101649.00;5049938;28;19947;-59
2022/12/03 03:28:01;;;;;;;;;;;;;;;3.56;100.00;101650.19;5050706;28;20077;-60
2022/12/03 03:30:26;;;;;;;;;;;;;;;3.47;100.00;101647.31;5053931;28;20021;-59
2022/12/03 03:32:52;;;;;;;;;;;;;;;3.48;100.00;101646.38;5060940;28;19928;-60
2022/12/03 03:35:17;;;;;;;;;;;;;;;3.55;100.00;101641.47;5034088;28;20375;-60
2022/12/03 03:37:42;;;;;;;;;;;;;;;3.68;100.00;101644.00;5057658;28;20011;-58
2022/12/03 03:40:08;;;;;;;;;;;;;;;3.72;100.00;101641.03;5055380;28;19924;-60
2022/12/03 03:42:33;;;;;;;;;;;;;;;3.84;100.00;101633.16;5052743;28;19925;-59
2022/12/03 03:44:59;;;;;;;;;;;;;;;3.86;100.00;101631.25;5056272;28;19932;-58
2022/12/03 03:47:24;;;;;;;;;;;;;;;3.91;100.00;101629.09;5050210;28;20027;-60
2022/12/03 03:49:50;;;;;;;;;;;;;;;3.90;100.00;101625.66;5049923;28;20377;-59
2022/12/03 03:52:16;;;;;;;;;;;;;;;3.95;100.00;101630.56;5051286;28;19928;-57
2022/12/03 03:54:41;;;;;;;;;;;;;;;3.97;100.00;101628.63;5061027;28;20309;-57
2022/12/03 03:57:06;;;;;;;;;;;;;;;3.94;100.00;101619.19;5053594;28;19927;-59
2022/12/03 03:59:32;;;;;;;;;;;;;;;3.93;100.00;101628.03;5049114;28;20036;-59
2022/12/03 04:01:57;;;;;;;;;;;;;;;4.00;100.00;101633.66;5058009;28;19960;-57
2022/12/03 04:04:25;;;;;;;;;;;;;;;4.00;100.00;101631.03;5059944;28;19921;-58
2022/12/03 04:06:50;;;;;;;;;;;;;;;3.94;100.00;101629.69;5052370;28;20400;-57
2022/12/03 04:09:16;;;;;;;;;;;;;;;3.96;100.00;101629.59;5058667;28;19921;-57
2022/12/03 04:14:24;;;;;;;;;;;;;;;3.92;100.00;101628.13;5054804;28;19932;-52
2022/12/03 04:16:50;;;;;;;;;;;;;;;3.91;100.00;101631.72;5057204;28;19921;-55
2022/12/03 04:19:15;;;;;;;;;;;;;;;3.91;100.00;101632.56;5053323;28;20388;-55
2022/12/03 04:24:24;;;;;;;;;;;;;;;3.94;100.00;101632.31;5053618;28;19975;-56
2022/12/03 04:29:33;;;;;;;;;;;;;;;3.94;100.00;101628.88;5053880;28;19985;-56
2022/12/03 04:37:26;;;;;;;;;;;;;;;3.88;100.00;101635.44;5066449;28;20290;-60
2022/12/03 04:39:51;;;;;;;;;;;;;;;3.87;100.00;101627.66;5054029;28;19947;-61
2022/12/03 04:42:17;;;;;;;;;;;;;;;3.85;100.00;101624.34;5055585;28;19921;-58
2022/12/03 04:44:42;;;;;;;;;;;;;;;3.80;100.00;101606.34;5065326;28;19960;-60
2022/12/03 04:47:15;;;;;;;;;;;;;;;3.81;100.00;101599.28;5056522;28;19928;-60
2022/12/03 04:49:41;;;;;;;;;;;;;;;3.79;100.00;101604.66;5058681;28;19931;-60
2022/12/03 04:52:07;;;;;;;;;;;;;;;3.76;100.00;101604.06;5068381;28;19921;-58
2022/12/03 04:54:33;;;;;;;;;;;;;;;3.80;100.00;101600.25;5052638;28;19929;-58
2022/12/03 04:56:58;;;;;;;;;;;;;;;3.81;100.00;101587.00;5057603;28;19920;-55
2022/12/03 04:59:23;;;;;;;;;;;;;;;3.83;100.00;101594.75;5063829;28;20012;-58
2022/12/03 05:01:48;;;;;;;;;;;;;;;3.78;100.00;101599.53;5058782;28;19969;-57
2022/12/03 05:04:14;;;;;;;;;;;;;;;3.74;100.00;101601.53;5057799;28;19931;-58
2022/12/03 05:06:40;;;;;;;;;;;;;;;3.80;100.00;101601.09;5058325;28;19956;-55
2022/12/03 05:09:05;;;;;;;;;;;;;;;3.77;100.00;101606.56;5063277;28;20279;-55
2022/12/03 05:11:30;;;;;;;;;;;;;;;3.75;100.00;101611.09;5048747;28;19921;-57
2022/12/03 05:13:55;;;;;;;;;;;;;;;3.69;100.00;101599.31;5055184;28;19920;-60
2022/12/03 05:16:21;;;;;;;;;;;;;;;3.68;100.00;101602.84;5056226;28;19920;-59
2022/12/03 05:18:46;;;;;;;;;;;;;;;3.69;100.00;101580.09;5054320;28;19931;-58
2022/12/03 05:21:11;;;;;;;;;;;;;;;3.69;100.00;101587.94;5054048;28;20015;-60
2022/12/03 05:23:37;;;;;;;;;;;;;;;3.72;100.00;101587.72;5061210;28;19974;-59
2022/12/03 05:26:02;;;;;;;;;;;;;;;3.67;100.00;101574.97;5057399;28;19971;-60
2022/12/03 05:28:27;;;;;;;;;;;;;;;3.65;100.00;101579.50;5059385;28;20018;-60
2022/12/03 05:30:52;;;;;;;;;;;;;;;3.63;100.00;101583.19;5053280;28;19920;-60
2022/12/03 05:33:18;;;;;;;;;;;;;;;3.64;100.00;101577.84;5062531;28;19928;-60
2022/12/03 05:35:43;;;;;;;;;;;;;;;3.67;100.00;101574.97;5055351;28;20325;-60
2022/12/03 05:38:08;;;;;;;;;;;;;;;3.65;100.00;101571.63;5051622;28;19978;-60
2022/12/03 05:40:33;;;;;;;;;;;;;;;3.67;100.00;101577.59;5054550;28;19925;-59
2022/12/03 05:43:02;;;;;;;;;;;;;;;3.69;100.00;101567.81;5058205;28;19921;-59
2022/12/03 05:45:32;;;;;;;;;;;;;;;3.70;100.00;101569.47;5051233;28;20019;-60
2022/12/03 05:47:58;;;;;;;;;;;;;;;3.71;100.00;101558.03;5059027;28;19980;-60
2022/12/03 05:50:25;;;;;;;;;;;;;;;3.72;100.00;101562.34;5055164;28;19924;-59
2022/12/03 05:52:50;;;;;;;;;;;;;;;3.74;100.00;101556.13;5057592;28;19928;-59
2022/12/03 05:55:16;;;;;;;;;;;;;;;3.69;100.00;101559.94;5062086;28;20288;-58
2022/12/03 05:57:41;;;;;;;;;;;;;;;3.70;100.00;101564.25;5049241;28;20012;-54
2022/12/03 06:00:08;;;;;;;;;;;;;;;3.71;100.00;101555.41;5060883;28;19920;-57
2022/12/03 06:02:33;;;;;;;;;;;;;;;3.71;100.00;101552.78;5053326;28;19920;-58
2022/12/03 06:04:59;;;;;;;;;;;;;;;3.71;100.00;101539.66;5057955;28;19916;-60
2022/12/03 06:07:24;;;;;;;;;;;;;;;3.71;100.00;101539.66;5063579;28;19925;-60
2022/12/03 06:09:49;;;;;;;;;;;;;;;3.71;100.00;101541.44;5053821;28;20389;-60
2022/12/03 06:12:14;;;;;;;;;;;;;;;3.70;100.00;101540.63;5053545;28;20435;-58
2022/12/03 06:14:40;;;;;;;;;;;;;;;3.69;100.00;101533.72;5055778;28;20430;-56
2022/12/03 06:17:05;;;;;;;;;;;;;;;3.71;100.00;101528.34;5062083;28;20319;-57
2022/12/03 06:19:30;;;;;;;;;;;;;;;3.74;100.00;101532.50;5053254;28;20442;-60
2022/12/03 06:21:55;;;;;;;;;;;;;;;3.69;100.00;101533.72;5041432;28;19924;-60
2022/12/03 06:24:21;;;;;;;;;;;;;;;3.66;100.00;101536.56;5062299;28;20061;-59
2022/12/03 06:26:46;;;;;;;;;;;;;;;3.68;100.00;101534.66;5052911;28;20072;-59
2022/12/03 06:29:11;;;;;;;;;;;;;;;3.71;100.00;101537.03;5053437;28;19925;-57
2022/12/03 06:31:36;;;;;;;;;;;;;;;3.73;100.00;101529.06;5062934;28;19925;-60
2022/12/03 06:34:01;;;;;;;;;;;;;;;3.72;100.00;101535.28;5058455;28;20289;-58
2022/12/03 06:36:27;;;;;;;;;;;;;;;3.75;100.00;101535.03;5050547;28;19943;-60
2022/12/03 06:38:52;;;;;;;;;;;;;;;3.75;100.00;101523.69;5051352;28;19917;-59
2022/12/03 06:41:18;;;;;;;;;;;;;;;3.74;100.00;101524.66;5052436;28;20287;-57
2022/12/03 06:43:43;;;;;;;;;;;;;;;3.75;100.00;101521.09;5058299;28;20565;-58
2022/12/03 06:46:08;;;;;;;;;;;;;;;3.76;100.00;101520.94;5052506;28;19995;-55
2022/12/03 06:48:33;;;;;;;;;;;;;;;3.76;100.00;101513.06;5059540;28;19928;-59
2022/12/03 06:50:59;;;;;;;;;;;;;;;3.77;100.00;101506.03;5045640;28;19917;-60
2022/12/03 06:53:24;;;;;;;;;;;;;;;3.78;100.00;101516.41;5059528;28;20034;-60
2022/12/03 06:55:49;;;;;;;;;;;;;;;3.81;100.00;101504.84;5052257;28;19925;-60
2022/12/03 06:58:14;;;;;;;;;;;;;;;3.82;100.00;101501.25;5065923;28;19920;-60
2022/12/03 07:00:39;;;;;;;;;;;;;;;3.80;100.00;101509.25;5056075;28;20197;-57
2022/12/03 07:03:05;;;;;;;;;;;;;;;3.80;100.00;101511.88;5058085;28;20688;-58
2022/12/03 07:05:30;;;;;;;;;;;;;;;3.80;100.00;101508.44;5040332;28;19924;-57
2022/12/03 07:07:55;;;;;;;;;;;;;;;3.81;100.00;101513.53;5053181;28;20366;-59
2022/12/03 07:10:21;;;;;;;;;;;;;;;3.79;100.00;101512.00;5042849;28;19951;-56
2022/12/03 07:12:46;;;;;;;;;;;;;;;3.78;100.00;101510.34;5059315;28;19931;-57
2022/12/03 07:15:11;;;;;;;;;;;;;;;3.77;100.00;101511.28;5061610;28;19920;-56
2022/12/03 07:17:37;;;;;;;;;;;;;;;3.71;100.00;101512.59;5055472;28;19931;-59
2022/12/03 07:20:03;;;;;;;;;;;;;;;3.65;100.00;101513.91;5055201;28;19928;-60
2022/12/03 07:22:29;;;;;;;;;;;;;;;3.60;100.00;101504.75;5050892;28;19948;-60
2022/12/03 07:24:54;;;;;;;;;;;;;;;3.57;100.00;101518.13;5058291;28;20437;-60
2022/12/03 07:27:19;;;;;;;;;;;;;;;3.60;100.00;101513.44;5056121;28;19928;-56
2022/12/03 07:29:44;;;;;;;;;;;;;;;3.61;100.00;101511.66;5053402;28;20413;-60
2022/12/03 07:32:09;;;;;;;;;;;;;;;3.66;100.00;101515.59;5048654;28;20018;-58
2022/12/03 07:34:35;;;;;;;;;;;;;;;3.68;100.00;101502.34;5054913;28;19928;-58
2022/12/03 07:37:00;;;;;;;;;;;;;;;3.72;100.00;101501.16;5058799;28;20019;-59
2022/12/03 07:39:25;;;;;;;;;;;;;;;3.70;100.00;101496.03;5048045;28;19920;-58
2022/12/03 07:41:51;;;;;;;;;;;;;;;3.75;100.00;101497.47;5047951;28;19921;-60
2022/12/03 07:44:16;;;;;;;;;;;;;;;3.78;100.00;101505.09;5058842;28;20593;-58
2022/12/03 07:46:41;;;;;;;;;;;;;;;3.79;100.00;101501.50;5063006;28;20423;-58
2022/12/03 07:49:06;;;;;;;;;;;;;;;3.80;100.00;101504.03;5057058;28;19964;-60
2022/12/03 07:51:31;;;;;;;;;;;;;;;3.85;100.00;101501.84;5059479;28;20004;-60
2022/12/03 07:53:57;;;;;;;;;;;;;;;3.86;100.00;101498.28;5042138;28;19924;-57
2022/12/03 07:56:22;;;;;;;;;;;;;;;3.88;100.00;101498.16;5057027;28;19951;-59
2022/12/03 07:58:47;;;;;;;;;;;;;;;3.90;100.00;101488.38;5057578;28;20354;-56
2022/12/03 08:01:12;;;;;;;;;;;;;;;3.93;100.00;101493.38;5064375;28;20329;-59
2022/12/03 08:03:38;;;;;;;;;;;;;;;3.97;100.00;101486.09;5064806;28;20367;-60
2022/12/03 08:06:03;;;;;;;;;;;;;;;3.90;100.00;101486.59;5056251;28;19921;-60
2022/12/03 08:08:29;;;;;;;;;;;;;;;3.95;100.00;101483.59;5063158;28;20441;-60
2022/12/03 08:10:54;;;;;;;;;;;;;;;3.91;100.00;101484.78;5024151;28;19928;-61
2022/12/03 08:13:19;;;;;;;;;;;;;;;3.92;100.00;101470.69;5052630;28;19976;-59
2022/12/03 08:15:45;;;;;;;;;;;;;;;3.90;100.00;101480.50;5058527;28;19925;-60
2022/12/03 08:18:15;;;;;;;;;;;;;;;3.96;100.00;101482.63;5050315;28;19921;-60
2022/12/03 08:20:41;;;;;;;;;;;;;;;3.99;100.00;101479.75;5064783;28;20404;-60
2022/12/03 08:23:10;;;;;;;;;;;;;;;4.00;100.00;101470.94;5050777;28;20289;-61
2022/12/03 08:25:35;;;;;;;;;;;;;;;4.00;100.00;101478.81;5034158;28;19943;-61
2022/12/03 08:28:06;;;;;;;;;;;;;;;3.96;100.00;101474.75;5059728;28;19968;-59
2022/12/03 08:30:31;;;;;;;;;;;;;;;3.90;100.00;101481.34;5041737;28;20244;-58
2022/12/03 08:32:56;;;;;;;;;;;;;;;3.84;100.00;101471.31;5053989;28;20397;-59
2022/12/03 08:35:24;;;;;;;;;;;;;;;3.84;100.00;101475.72;5054262;28;19924;-61
2022/12/03 08:37:54;;;;;;;;;;;;;;;3.87;100.00;101478.97;5055375;28;19928;-58
2022/12/03 08:40:22;;;;;;;;;;;;;;;3.89;100.00;101473.56;5055725;28;20289;-59
2022/12/03 08:42:47;;;;;;;;;;;;;;;3.90;100.00;101476.09;5051366;28;19925;-59
2022/12/03 08:45:27;;;;;;;;;;;;;;;3.90;100.00;101475.25;5062161;28;19932;-60
2022/12/03 08:48:00;;;;;;;;;;;;;;;3.94;100.00;101479.28;5054207;28;20325;-59
2022/12/03 08:50:30;;;;;;;;;;;;;;;3.97;100.00;101476.41;5055845;28;19929;-59
2022/12/03 08:53:07;;;;;;;;;;;;;;;4.00;100.00;101475.34;5065939;28;20289;-60
2022/12/03 08:55:32;;;;;;;;;;;;;;;4.04;100.00;101477.59;5062029;28;19925;-61
2022/12/03 08:57:58;;;;;;;;;;;;;;;4.08;100.00;101473.78;5055407;28;20227;-59
2022/12/03 09:00:23;;;;;;;;;;;;;;;4.14;100.00;101475.06;5056875;28;19970;-60
2022/12/03 09:02:50;;;;;;;;;;;;;;;4.17;100.00;101473.97;5050262;28;19925;-60
2022/12/03 09:05:18;;;;;;;;;;;;;;;4.19;100.00;101479.94;5057282;28;20441;-60
2022/12/03 09:07:43;;;;;;;;;;;;;;;4.19;100.00;101469.44;5056554;28;20253;-59
2022/12/03 09:10:09;;;;;;;;;;;;;;;4.21;100.00;101464.88;5052246;28;20131;-59
2022/12/03 09:12:34;;;;;;;;;;;;;;;4.24;100.00;101462.03;5058094;28;19932;-58
2022/12/03 09:14:59;;;;;;;;;;;;;;;4.29;100.00;101462.47;5050589;28;20323;-59
2022/12/03 09:17:25;;;;;;;;;;;;;;;4.32;100.00;101460.44;5050829;28;20014;-59
2022/12/03 09:19:50;;;;;;;;;;;;;;;4.33;100.00;101456.81;5054753;28;20685;-60
2022/12/03 09:22:16;;;;;;;;;;;;;;;4.36;100.00;101445.25;5048080;28;19932;-60
2022/12/03 09:24:41;;;;;;;;;;;;;;;4.38;100.00;101443.31;5058414;28;19924;-58
2022/12/03 09:27:06;;;;;;;;;;;;;;;4.40;100.00;101445.84;5047347;28;19931;-60
2022/12/03 09:29:32;;;;;;;;;;;;;;;4.44;100.00;101447.22;5054950;28;20051;-60
2022/12/03 09:31:57;;;;;;;;;;;;;;;4.44;100.00;101449.84;5058503;28;19925;-60
2022/12/03 09:34:22;;;;;;;;;;;;;;;4.43;100.00;101445.56;5045643;28;19928;-61
2022/12/03 09:36:47;;;;;;;;;;;;;;;4.44;100.00;101448.09;5055167;28;19921;-59
2022/12/03 09:39:12;;;;;;;;;;;;;;;4.46;100.00;101447.94;5055659;28;19935;-59
2022/12/03 09:41:38;;;;;;;;;;;;;;;4.50;100.00;101447.56;5054175;28;19921;-58
2022/12/03 09:44:03;;;;;;;;;;;;;;;4.57;100.00;101447.91;5053592;28;19925;-59
2022/12/03 09:46:29;;;;;;;;;;;;;;;4.59;100.00;101449.44;5054425;28;19928;-59
2022/12/03 09:48:54;;;;;;;;;;;;;;;4.59;100.00;101446.81;5052274;28;19932;-57
2022/12/03 09:51:19;;;;;;;;;;;;;;;4.59;100.00;101444.19;5053281;28;19920;-58
2022/12/03 09:53:45;;;;;;;;;;;;;;;4.57;100.00;101453.16;5050537;28;19921;-57
2022/12/03 09:56:13;;;;;;;;;;;;;;;4.58;100.00;101454.81;5054713;28;19929;-56
2022/12/03 09:58:40;;;;;;;;;;;;;;;4.59;100.00;101443.31;5048122;28;19921;-58
2022/12/03 10:01:11;;;;;;;;;;;;;;;4.57;100.00;101443.47;5053521;28;20258;-60
2022/12/03 10:03:37;;;;;;;;;;;;;;;4.56;100.00;101444.41;5055310;28;20451;-60
2022/12/03 10:06:03;;;;;;;;;;;;;;;4.55;100.00;101448.00;5048508;28;19939;-60
2022/12/03 10:08:28;;;;;;;;;;;;;;;4.57;100.00;101440.84;5056906;28;19920;-56
2022/12/03 10:10:55;;;;;;;;;;;;;;;4.58;100.00;101441.69;5057849;28;19929;-59
2022/12/03 10:13:30;;;;;;;;;;;;;;;4.57;100.00;101440.03;5051387;28;21073;-59
2022/12/03 10:15:57;;;;;;;;;;;;;;;4.57;100.00;101443.47;5054944;28;19920;-59
2022/12/03 10:18:24;;;;;;;;;;;;;;;4.56;100.00;101438.34;5051132;28;19921;-60
2022/12/03 10:20:50;;;;;;;;;;;;;;;4.53;100.00;101441.22;5051202;28;20503;-60
2022/12/03 10:23:26;;;;;;;;;;;;;;;4.52;100.00;101444.81;5063067;28;20312;-60
2022/12/03 10:25:56;;;;;;;;;;;;;;;4.53;100.00;101435.97;5036951;28;20019;-59
2022/12/03 10:28:30;;;;;;;;;;;;;;;4.55;100.00;101440.13;5051987;28;20369;-59
2022/12/03 10:30:56;;;;;;;;;;;;;;;4.61;100.00;101440.59;5051146;28;20030;-60
2022/12/03 10:33:27;;;;;;;;;;;;;;;4.62;100.00;101442.25;5052687;28;20836;-60
2022/12/03 10:35:52;;;;;;;;;;;;;;;4.66;100.00;101431.34;5056282;28;20346;-60
2022/12/03 10:38:19;;;;;;;;;;;;;;;4.71;100.00;101431.78;5048404;28;20027;-60
2022/12/03 10:40:44;;;;;;;;;;;;;;;4.76;100.00;101431.41;5056113;28;20467;-59
2022/12/03 10:43:13;;;;;;;;;;;;;;;4.81;100.00;101423.97;5053262;28;19947;-59
2022/12/03 10:45:38;;;;;;;;;;;;;;;4.84;100.00;101418.44;5052522;28;21053;-56
2022/12/03 10:48:09;;;;;;;;;;;;;;;4.84;100.00;101413.19;5034951;28;19921;-59
2022/12/03 10:50:35;;;;;;;;;;;;;;;4.87;100.00;101412.09;5046538;28;20340;-59
2022/12/03 10:53:00;;;;;;;;;;;;;;;4.90;100.00;101402.16;5059052;28;19925;-58
2022/12/03 10:55:27;;;;;;;;;;;;;;;4.95;100.00;101405.22;5057751;28;19927;-59
2022/12/03 10:57:52;;;;;;;;;;;;;;;5.03;100.00;101405.41;5055605;28;20023;-57
2022/12/03 11:00:18;;;;;;;;;;;;;;;5.10;100.00;101402.25;5055853;28;20062;-56
2022/12/03 11:02:44;;;;;;;;;;;;;;;5.19;100.00;101397.03;5063210;28;19924;-59
2022/12/03 11:05:15;;;;;;;;;;;;;;;5.21;100.00;101389.00;5056379;28;20004;-59
2022/12/03 11:07:41;;;;;;;;;;;;;;;5.27;100.00;101388.47;5051476;28;20058;-59
2022/12/03 11:10:11;;;;;;;;;;;;;;;5.35;100.00;101379.91;5060069;28;19920;-59
2022/12/03 11:12:36;;;;;;;;;;;;;;;5.39;100.00;101376.84;5056957;28;20456;-60
2022/12/03 11:15:05;;;;;;;;;;;;;;;5.41;100.00;101368.84;5055251;28;19927;-60
2022/12/03 11:17:41;;;;;;;;;;;;;;;5.41;100.00;101374.94;5064171;28;19920;-61
2022/12/03 11:20:15;;;;;;;;;;;;;;;5.44;100.00;101369.38;5049525;28;19928;-58
2022/12/03 11:22:44;;;;;;;;;;;;;;;5.52;100.00;101360.00;5058349;28;20422;-58
2022/12/03 11:25:25;;;;;;;;;;;;;;;5.58;100.00;101354.19;5062066;28;19921;-60
2022/12/03 11:28:20;;;;;;;;;;;;;;;5.64;100.00;101359.72;5063756;28;20035;-58
2022/12/03 11:30:48;;;;;;;;;;;;;;;5.69;100.00;101362.78;5046504;28;20013;-60
2022/12/03 11:33:22;;;;;;;;;;;;;;;5.69;100.00;101344.38;5060596;28;19978;-61
2022/12/03 11:36:02;;;;;;;;;;;;;;;5.76;100.00;101330.66;5051610;28;19987;-53
2022/12/03 11:38:37;;;;;;;;;;;;;;;5.80;100.00;101324.97;5062014;28;20125;-58
2022/12/03 11:41:09;;;;;;;;;;;;;;;5.83;100.00;101314.16;5063676;28;19921;-59
2022/12/03 11:43:54;;;;;;;;;;;;;;;5.88;100.00;101309.31;5062595;28;19974;-59
2022/12/03 11:46:21;;;;;;;;;;;;;;;5.90;100.00;101298.66;5071371;28;19920;-60
2022/12/03 11:48:46;;;;;;;;;;;;;;;5.99;100.00;101307.53;5059805;28;20078;-59
2022/12/03 11:51:15;;;;;;;;;;;;;;;6.01;100.00;101289.78;5066527;28;20007;-58
2022/12/03 11:53:42;;;;;;;;;;;;;;;6.00;100.00;101294.22;5070187;28;19928;-59
2022/12/03 11:56:12;;;;;;;;;;;;;;;6.02;100.00;101280.94;5065810;28;19991;-60
2022/12/03 11:58:40;;;;;;;;;;;;;;;6.06;100.00;101279.66;5058969;28;20558;-57
2022/12/03 12:01:07;;;;;;;;;;;;;;;6.08;100.00;101273.28;5067859;28;19924;-60
2022/12/03 12:03:48;;;;;;;;;;;;;;;6.14;100.00;101273.69;5067686;28;19932;-59
2022/12/03 12:06:15;;;;;;;;;;;;;;;6.18;100.00;101265.38;5052183;28;19924;-60
2022/12/03 12:08:53;;;;;;;;;;;;;;;6.23;100.00;101257.88;5064856;28;19924;-60
2022/12/03 12:11:30;;;;;;;;;;;;;;;6.26;100.00;101254.94;5064855;28;19921;-60
2022/12/03 12:14:05;;;;;;;;;;;;;;;6.25;100.00;101250.66;5069308;28;20450;-60
2022/12/03 12:16:49;;;;;;;;;;;;;;;6.27;100.00;101243.44;5066272;28;19933;-57
2022/12/03 12:19:33;;;;;;;;;;;;;;;6.31;100.00;101238.72;5073705;28;19924;-55
2022/12/03 12:22:17;;;;;;;;;;;;;;;6.28;100.00;101242.47;5065081;28;20003;-57
2022/12/03 12:24:47;;;;;;;;;;;;;;;6.34;100.00;101226.06;5064455;28;20331;-59
2022/12/03 12:27:30;;;;;;;;;;;;;;;6.46;100.00;101225.91;5056130;28;19986;-60
2022/12/03 12:29:57;;;;;;;;;;;;;;;6.50;100.00;101224.63;5063963;28;19931;-58
2022/12/03 12:32:24;;;;;;;;;;;;;;;6.59;100.00;101210.59;5070343;28;19925;-57
2022/12/03 12:34:50;;;;;;;;;;;;;;;6.65;100.00;101207.34;5070797;28;19928;-59
2022/12/03 12:37:21;;;;;;;;;;;;;;;6.72;100.00;101197.88;5057988;28;19971;-60
2022/12/03 12:39:47;;;;;;;;;;;;;;;6.86;100.00;101204.44;5069123;28;20137;-60
2022/12/03 12:42:27;;;;;;;;;;;;;;;6.90;100.00;101197.06;5049089;28;20007;-60
2022/12/03 12:44:53;;;;;;;;;;;;;;;6.85;100.00;101194.88;5064077;28;20301;-60
2022/12/03 12:47:18;;;;;;;;;;;;;;;6.82;100.00;101191.72;5066759;28;19921;-60
2022/12/03 12:49:43;;;;;;;;;;;;;;;6.74;100.00;101198.56;5054252;28;20028;-60